El Dorado Springs, MO (64744)

11:01 PM CDT on April 26, 2017 (GMT -0500)
St. Clair County | | Change Station

Elev 965 ft 37.90 °N, 93.80 °W | Updated 14 seconds ago

Overcast
Overcast
45.9 °F
Feels Like 46 °F
N
0.0
Wind Variable Wind from North
Gusts 0.0 mph

Today
High -- | Low -- °F
--% Chance of Precip.
Yesterday
High -- | Low -- °F
Precip. -- in
Pressure 29.66 in
Visibility 5.0 miles
Clouds Scattered Clouds 800 ft
Mostly Cloudy 1300 ft
Overcast 2900 ft
Windchill 46 °F
Dew Point 45 °F
Humidity 97%
Rainfall 1.57 in
Snow Depth Not available.
6:25 AM 8:02 PM
New Moon, 1% visible
METAR KGLY 270335Z AUTO 28006KT 5SM BR SCT008 BKN013 OVC029 08/08 A2966 RMK AO2
Pressure 29.66 in
Visibility 5.0 miles
Clouds Scattered Clouds 800 ft
Mostly Cloudy 1300 ft
Overcast 2900 ft
Windchill 46 °F
Dew Point 45 °F
Humidity 97%
Rainfall 1.57 in
Snow Depth Not available.
6:25 AM 8:02 PM
New Moon, 1% visible
METAR KGLY 270335Z AUTO 28006KT 5SM BR SCT008 BKN013 OVC029 08/08 A2966 RMK AO2

Get Severe Weather Alerts

Thanks for signing up!

Be on the lookout for a verification email in your inbox.

You'll start receiving the daily forecast at 8 AM.

×

10-Day Weather Forecast

Almanac

Astronomy

Apr. 26, 2017 Rise Set
Actual Time
Civil Twilight
Nautical Twilight
Astronomical Twilight
Moon
Length of Visible Light
Length of Day
Tomorrow will be .
, % of the Moon is Illuminated

Today's Extremes

State Highs State Lows

Community

WunderPhotos

WunderBlog® & News

Nearby

Air Quality

  Air Quality AQ Index Pollutant
Not available.

Snow Depth

Station Depth Elevation

Earthquake Activity

City Distance Mag. Time & Date
Minimum magnitude displayed is 2.5.

Coastal Water Temperatures

Place Temperature

Stations

Nearby Weather Stations

Station Location Temp. Windchill Dew Point Humidity Wind Precip. Elev Updated Type
                   

Watches & Warnings

There are currently no watches in effect.